Weather observations for the past three days for
Owatonna Degner Regional Airport
Imperial (Metric)
Date Time (cdt) Wind (mph) Vis. (mi.) Weather Sky Cond. Temperature (ºF) Relative Humidity Wind Chill (°F) Heat Index (°F) Pressure Precipitation (in)
Air Dwpt 6 hour altimeter (in) sea level (mb) 1 hr 3 hr 6 hr
Max. Min.
10 17:55 N 16 G 22 10.00 Fair CLR 59.2 24.8 27% 30.11 0.0
10 17:35 N 16 G 21 10.00 Fair CLR 59.7 25.7 27% 30.11 0.0
10 17:15 N 15 G 23 10.00 Fair CLR 61 25.7 26% 30.1 0.0
10 16:55 N 15 10.00 A Few Clouds FEW080 59.4 27.1 29% 30.1 0.0
10 16:35 NW 16 G 21 10.00 A Few Clouds FEW075 59.9 27.5 29% 30.1 0.0
10 16:15 N 16 G 25 10.00 Partly Cloudy SCT075 60.4 28.6 30% 30.1 0.0
10 15:55 NW 10 10.00 Partly Cloudy SCT075 60.8 27.9 29% 30.1 0.0
10 15:35 N 14 G 21 10.00 Partly Cloudy SCT075 59 30.4 34% 30.1 0.0
10 15:15 N 15 G 26 10.00 Partly Cloudy SCT070 58.5 30.4 35% 30.1 0.0
10 14:55 NW 12 G 23 10.00 Mostly Cloudy BKN070 59.7 30.9 34% 30.11 0.0
10 14:35 Vrbl 7 10.00 Mostly Cloudy BKN070 58.6 30.2 34% 30.1 0.0
10 14:15 NW 13 G 22 10.00 Mostly Cloudy BKN070 58.5 30 34% 30.1 0.0
10 13:55 NW 16 G 21 10.00 Partly Cloudy SCT070 60.8 30.9 32% 30.1 0.0
10 13:35 NW 10 G 18 10.00 A Few Clouds FEW070 59 29.7 33% 30.1 0.0
10 13:15 NW 10 G 21 10.00 A Few Clouds FEW070 59 30.4 34% 30.11 0.0
10 12:55 NW 14 G 18 10.00 Fair CLR 59.2 31.3 35% 30.1 0.0
10 12:35 NW 10 G 18 10.00 Fair CLR 59 30.2 34% 30.11 0.0
10 12:15 N 9 10.00 A Few Clouds FEW090 57.6 30.7 36% 30.11 0.0
10 11:55 W 12 10.00 Mostly Cloudy BKN090 57.9 27.7 32% 30.11 0.0
10 11:35 NW 8 10.00 Mostly Cloudy BKN090 56.3 28.6 35% 30.11 0.0
10 11:15 N 12 10.00 Mostly Cloudy BKN090 55.8 29.8 37% 30.11 0.0
10 10:55 NW 13 10.00 Mostly Cloudy BKN090 54.7 28.4 37% 30.1 0.0
10 10:15 N 9 10.00 Mostly Cloudy BKN095 54.9 28.4 36% 30.1 0.0
10 09:55 NW 10 G 16 10.00 Mostly Cloudy BKN095 54.1 28.6 38% 30.1 0.0
10 09:35 NW 7 10.00 Mostly Cloudy BKN095 53.4 28.9 39% 30.1 0.0
10 09:15 NW 10 10.00 Mostly Cloudy BKN090 52 27.5 39% 30.11 0.0
10 08:55 W 8 10.00 A Few Clouds FEW090 50 29.7 46% 47 30.11 0.0
10 08:35 NW 6 10.00 A Few Clouds FEW095 47.1 29.8 51% 45 30.11 0.0
10 08:15 N 8 10.00 Fair CLR 45.7 30.2 55% 42 30.1 0.0
10 07:55 NW 6 10.00 A Few Clouds FEW095 46.4 28.4 50% 44 30.09 0.0
10 07:35 W 6 10.00 Mostly Cloudy BKN095 43.3 27.5 54% 40 30.08 0.0
10 07:15 W 3 10.00 Overcast OVC095 40.8 27.1 58% 30.08 0.0
10 06:55 SW 6 10.00 Mostly Cloudy BKN095 39.6 26.2 59% 36 30.07 0.0
10 06:35 SW 6 10.00 Overcast OVC090 37.8 26.6 64% 34 30.07 0.0
10 06:15 SW 6 10.00 Mostly Cloudy BKN095 36 25.7 66% 32 30.07 0.0
10 05:55 SW 8 10.00 Partly Cloudy SCT090 35.6 25.5 67% 30 30.06 0.0
10 05:35 SW 7 10.00 Overcast OVC090 37.6 25.9 63% 33 30.06 0.0
10 05:15 SW 7 10.00 Mostly Cloudy BKN090 37.4 26.4 65% 33 30.06 0.0
10 04:55 SW 6 10.00 Partly Cloudy SCT090 36 26.6 69% 32 30.05 0.0
10 04:35 SW 5 10.00 Fair CLR 35.8 25.5 66% 32 30.04 0.0
10 04:15 S 5 10.00 A Few Clouds FEW090 34.7 26.1 71% 31 30.03 0.0
10 03:55 Calm 10.00 Fair CLR 35.6 26.8 70% 30.03 0.0
10 03:35 Calm 10.00 Fair CLR 36.5 25 63% 30.02 0.0
10 03:15 Calm 10.00 A Few Clouds FEW090 37.9 24.6 59% 30.02 0.0
10 02:55 SW 5 10.00 A Few Clouds FEW090 35.4 24.4 64% 32 30 0.0
10 02:35 SW 3 10.00 Fair CLR 33.6 25 71% 30 0.0
10 02:15 S 3 10.00 Fair CLR 33.6 24.8 70% 30 0.0
10 01:55 SW 3 10.00 Fair CLR 36.3 24.1 61% 30 0.0
10 01:35 Calm 10.00 Fair CLR 40.5 23.5 51% 30.01 0.0
10 01:15 Calm 10.00 Fair CLR 41.7 24.1 50% 30.01 0.0
10 00:55 Calm 10.00 Fair CLR 39.4 23.9 54% 30.01 0.0
10 00:35 NW 6 10.00 Fair CLR 41 23.5 50% 38 30 0.0
10 00:15 NW 8 10.00 Fair CLR 40.5 24.3 52% 36 29.99 0.0
09 23:55 NW 8 10.00 Fair CLR 43.2 23.5 46% 39 29.99 0.0
09 23:35 NW 9 10.00 Fair CLR 42.8 22.8 45% 38 29.98 0.0
09 23:15 NW 8 10.00 Fair CLR 43 23.2 46% 39 29.98 0.0
09 22:55 NW 7 10.00 Fair CLR 44.2 22.6 42% 41 29.97 0.0
09 22:35 NW 8 10.00 Fair CLR 43.2 22.1 43% 39 29.96 0.0
09 22:15 NW 8 10.00 Fair CLR 45.7 22.3 40% 42 29.96 0.0
09 21:55 NW 7 10.00 Fair CLR 45.7 21.9 39% 43 29.95 0.0
09 21:35 NW 8 10.00 Fair CLR 46.4 22.1 38% 43 29.94 0.0
09 21:15 NW 10 10.00 Fair CLR 48.6 23.2 37% 45 29.92 0.0
09 20:55 NW 12 10.00 Fair CLR 50.2 23 34% 29.91 0.0
09 20:35 NW 10 10.00 Fair CLR 50.9 23 34% 29.9 0.0
09 20:15 NW 12 10.00 Fair CLR 53.4 23 31% 29.89 0.0
09 19:55 NW 13 10.00 Fair CLR 55 22.8 29% 29.88 0.0
09 19:35 NW 16 10.00 Fair CLR 55.9 23.2 28% 29.87 0.0
09 19:15 NW 17 10.00 Fair CLR 57 22.6 26% 29.86 0.0
09 18:55 N 16 10.00 Fair CLR 57.4 23.4 27% 29.85 0.0
09 18:35 N 15 10.00 Fair CLR 57.4 22.6 26% 29.85 0.0
09 18:15 N 17 10.00 Fair CLR 58.5 22.8 25% 29.84 0.0
09 17:55 N 17 G 28 10.00 Fair CLR 59 22.8 25% 29.84 0.0
09 17:35 N 16 10.00 Fair CLR 58.8 23 25% 29.83 0.0
09 17:15 N 18 G 23 10.00 Fair CLR 60.3 24.8 26% 29.82 0.0
09 16:55 N 20 G 29 10.00 Fair CLR 60.1 25.2 26% 29.82 0.0
09 16:35 N 16 G 29 10.00 Fair CLR 59.9 23.5 25% 29.82 0.0
09 16:15 NW 21 G 26 10.00 Fair and Breezy CLR 59.9 23.4 25% 29.81 0.0
09 15:55 NW 15 G 28 10.00 Fair CLR 60.4 25.7 27% 29.8 0.0
09 15:35 N 16 G 31 10.00 Fair CLR 60.1 26.2 27% 29.8 0.0
09 15:15 N 20 G 30 10.00 Fair CLR 60.1 25.7 27% 29.8 0.0
09 14:55 N 18 G 29 10.00 Fair CLR 60.6 25.9 27% 29.79 0.0
09 14:35 NW 20 G 29 10.00 Fair CLR 60.1 25.5 27% 29.79 0.0
09 14:15 NW 21 G 30 10.00 Fair and Breezy CLR 61 25.7 26% 29.78 0.0
09 13:55 NW 25 G 31 10.00 Fair and Breezy CLR 60.1 25 26% 29.78 0.0
09 13:35 NW 24 G 33 10.00 Fair and Breezy CLR 60.4 26.8 28% 29.77 0.0
09 13:15 N 24 G 37 10.00 Fair and Breezy CLR 59.5 28 30% 29.77 0.0
09 12:55 NW 18 G 31 10.00 Fair CLR 59.5 28.9 31% 29.77 0.0
09 12:15 NW 18 G 31 10.00 A Few Clouds FEW065 59 31.3 35% 29.76 0.0
09 11:55 N 23 10.00 A Few Clouds and Breezy FEW050 57.9 31.6 37% 29.76 0.0
09 11:35 N 21 G 29 10.00 A Few Clouds and Breezy FEW049 57.2 34.3 42% 29.76 0.0
09 11:15 N 24 G 29 10.00 Partly Cloudy and Breezy SCT042 SCT050 57.2 33.8 41% 29.75 0.0
09 10:55 N 20 G 26 10.00 Mostly Cloudy BKN041 BKN055 56.7 38.1 50% 29.75 0.0
09 10:35 N 17 10.00 Partly Cloudy SCT039 56.7 39.6 53% 29.74 0.0
09 10:15 N 21 G 28 10.00 Mostly Cloudy and Breezy SCT037 BKN046 55.8 39.2 54% 29.74 0.0
09 09:55 NW 22 G 25 10.00 Partly Cloudy and Breezy SCT036 55.6 40.3 57% 29.72 0.0
09 09:35 NW 21 G 26 10.00 Partly Cloudy and Breezy SCT032 54.7 41 60% 29.71 0.0
09 09:15 NW 18 10.00 Mostly Cloudy BKN033 55 42.1 62% 29.7 0.0
09 08:55 NW 17 G 26 10.00 Mostly Cloudy BKN028 53.1 42.8 68% 29.69 0.0
09 08:35 NW 21 G 26 10.00 Overcast and Breezy BKN028 OVC080 54 44.4 70% 29.68 0.0
09 08:15 NW 17 10.00 Overcast BKN075 OVC090 53.8 43 67% 29.67 0.0
09 07:55 W 10 10.00 Overcast OVC075 51.8 41.5 68% 29.67 0.0
09 07:35 W 9 9.00 Overcast OVC070 50.4 39.7 67% 29.66 0.0
09 07:15 W 6 7.00 Light Rain FEW044 BKN065 BKN080 OVC095 49.6 38.8 67% 48 29.65 0.0
09 06:55 NW 5 8.00 Light Rain SCT060 BKN075 OVC100 48.9 37.6 65% 48 29.65 0.0
09 06:35 Calm 9.00 Light Rain FEW060 SCT080 OVC095 48.6 34.5 58% 29.63 0.0
09 06:15 N 6 10.00 Overcast OVC095 48 33.8 58% 46 29.64 0.0
09 05:55 NW 7 10.00 Overcast BKN100 OVC110 46.8 32.5 58% 44 29.64 0.0
09 05:35 NW 7 10.00 Overcast OVC100 47.8 30.4 51% 45 29.63 0.0
09 05:15 W 5 10.00 Overcast OVC100 46.8 29.5 51% 45 29.62 0.0
09 04:55 NW 15 G 21 9.00 Overcast OVC100 46.6 30.6 54% 41 29.62 0.0
09 04:35 SW 8 10.00 Overcast OVC100 47.5 29.7 50% 44 29.6 0.0
09 04:15 SW 9 10.00 Overcast OVC100 46.6 29.8 52% 43 29.6 0.0
09 03:55 Calm 10.00 Partly Cloudy SCT100 45.5 29.3 53% 29.6 0.0
09 03:35 S 6 10.00 Fair CLR 43.5 28.9 57% 41 29.6 0.0
09 03:15 S 9 10.00 Partly Cloudy SCT110 46 28.6 51% 42 29.6 0.0
09 02:55 S 7 10.00 Mostly Cloudy BKN120 45.9 29.3 53% 43 29.59 0.0
09 02:35 S 9 10.00 Fair CLR 48.9 28 44% 45 29.59 0.0
09 02:15 SW 6 10.00 Fair CLR 45.7 27.7 50% 43 29.61 0.0
09 01:55 SW 5 10.00 Fair CLR 45.7 29.1 52% 44 29.61 0.0
09 01:35 SW 5 10.00 Fair CLR 48.4 27.3 44% 47 29.62 0.0
09 01:15 SW 6 10.00 Fair CLR 46.9 26.2 45% 45 29.63 0.0
09 00:55 W 3 10.00 Fair CLR 49.1 27 42% 29.63 0.0
09 00:35 NW 5 10.00 Fair CLR 51.3 27.5 40% 29.63 0.0
09 00:15 NW 9 10.00 Fair CLR 51.8 27.7 39% 29.64 0.0
08 23:55 NW 12 10.00 Fair CLR 53.6 28.6 38% 29.64 0.0
08 23:35 NW 12 10.00 Fair CLR 55.8 28.9 36% 29.64 0.0
08 23:15 NW 10 10.00 Fair CLR 54.9 28 36% 29.64 0.0
08 22:55 NW 14 10.00 Fair CLR 56.8 28.8 34% 29.63 0.0
08 22:35 NW 10 10.00 Fair CLR 55.4 28 35% 29.63 0.0
08 22:15 NW 10 10.00 Fair CLR 57.2 27.9 33% 29.63 0.0
08 21:55 NW 10 10.00 Fair CLR 57.6 26.6 31% 29.62 0.0
08 21:35 NW 7 10.00 Fair CLR 57.4 27.3 32% 29.61 0.0
08 21:15 NW 9 10.00 Fair CLR 57.7 28 32% 29.61 0.0
08 20:55 NW 9 10.00 Fair CLR 59.2 27.7 30% 29.6 0.0
08 20:35 NW 9 10.00 Fair CLR 61.3 28.2 28% 29.59 0.0
08 20:15 NW 15 10.00 Fair CLR 66.7 27.5 23% 29.59 0.0
08 19:55 NW 17 G 25 9.00 Fair CLR 68.2 26.8 21% 29.58 0.0
08 19:35 NW 20 9.00 A Few Clouds FEW100 69.1 27.7 21% 29.58 0.0
08 19:15 NW 18 G 26 10.00 A Few Clouds FEW100 69.6 28.4 21% 29.58 0.0
08 18:55 W 15 10.00 Partly Cloudy SCT100 70.5 30.9 23% 29.58 0.0
08 18:35 NW 15 10.00 Partly Cloudy SCT100 69.4 31.5 24% 29.58 0.0
08 18:15 NW 14 10.00 Mostly Cloudy SCT100 BKN120 70.7 27.9 20% 29.58 0.0
08 17:55 W 15 G 23 10.00 Mostly Cloudy BKN120 BKN140 70.7 27.7 20% 29.58 0.0
08 17:35 W 18 10.00 Overcast OVC120 71.6 27.7 19% 29.59 0.0
08 17:15 W 17 G 31 10.00 Overcast OVC120 71.4 27.7 20% 29.59 0.0
08 16:55 W 23 G 30 10.00 Mostly Cloudy and Breezy BKN110 73.6 29.5 20% 29.59 0.0
08 16:35 W 18 G 28 10.00 Mostly Cloudy BKN110 71.1 27 19% 29.6 0.0
08 16:15 W 16 10.00 Mostly Cloudy BKN110 71.1 24.8 18% 29.61 0.0
08 15:55 W 16 G 29 10.00 Mostly Cloudy BKN100 BKN120 71.4 25.2 18% 29.62 0.0
08 15:35 W 18 G 24 10.00 Overcast OVC110 70.3 23.9 17% 29.63 0.0
08 15:15 W 17 10.00 Overcast BKN110 OVC130 71.4 23.7 17% 29.64 0.0
08 14:55 W 13 G 23 10.00 Mostly Cloudy BKN130 70.9 24.1 17% 29.64 0.0
08 14:35 W 15 G 26 10.00 Mostly Cloudy SCT110 BKN130 70.9 23.4 17% 29.65 0.0
08 14:15 NW 16 G 25 10.00 Partly Cloudy SCT110 71.6 24.6 17% 29.66 0.0
08 13:55 W 15 G 26 10.00 NULL NULL 72 24.3 17% 29.66 0.0
08 13:35 NW 18 G 25 0.00 NULL NULL 70.2 25.7 19% 29.67 0.0
07 18:35 Calm 0.00 NULL NULL 58.6 17.1 20% 0 0.0
07 18:15 NW 9 10.00 Fair CLR 58.5 17.4 20% 29.8 0.0
Date Time (cdt) Wind (mph) Vis. (mi.) Weather Sky Cond. Air Dwpt Max. Min. Relative Humidity Wind Chill (°F) Heat Index (°F) altimeter (in) sea level (mb) 1 hr 3 hr 6 hr
6 hour
Temperature (ºF) Pressure Precipitation (in)